createdAt,value
2022-12-14T00:00:42.239Z,74.71
2022-12-14T00:04:45.287Z,74.72
2022-12-14T00:08:50.449Z,74.94
2022-12-14T00:12:54.895Z,75.13
2022-12-14T00:16:57.913Z,75.23
2022-12-14T00:21:05.628Z,75.17
2022-12-14T00:25:09.350Z,75.07
2022-12-14T00:29:13.804Z,75.15
2022-12-14T00:33:16.845Z,75.42
2022-12-14T00:37:20.262Z,75.57
2022-12-14T00:41:23.544Z,76.04
2022-12-14T00:45:27.996Z,75.61
2022-12-14T00:49:31.059Z,75.75
2022-12-14T00:53:34.119Z,75.61
2022-12-14T00:57:37.210Z,75.52
2022-12-14T01:01:41.700Z,76.00
2022-12-14T01:05:49.249Z,75.69
2022-12-14T01:09:52.613Z,75.99
2022-12-14T01:13:57.368Z,76.16
2022-12-14T01:18:02.045Z,76.50
2022-12-14T01:22:05.163Z,76.57
2022-12-14T01:26:08.284Z,76.78
2022-12-14T01:30:12.179Z,76.92
2022-12-14T01:34:17.357Z,76.89
2022-12-14T01:38:20.341Z,76.98
2022-12-14T01:42:23.936Z,76.80
2022-12-14T01:46:34.929Z,76.93
2022-12-14T01:50:44.331Z,76.96
2022-12-14T01:54:50.403Z,76.84
2022-12-14T01:58:53.873Z,77.23
2022-12-14T02:03:01.770Z,77.71
2022-12-14T02:07:06.559Z,77.64
2022-12-14T02:11:09.629Z,77.69
2022-12-14T02:15:15.192Z,77.89
2022-12-14T02:19:18.284Z,78.10
2022-12-14T02:23:50.521Z,78.05
2022-12-14T02:28:09.260Z,78.10
2022-12-14T02:32:33.312Z,78.18
2022-12-14T02:36:42.860Z,78.11
2022-12-14T02:40:56.587Z,78.08
2022-12-14T02:45:08.415Z,78.41
2022-12-14T02:49:22.219Z,78.37
2022-12-14T02:53:30.842Z,78.44
2022-12-14T02:57:42.115Z,78.64
2022-12-14T03:01:48.282Z,78.69
2022-12-14T03:05:59.158Z,78.71
2022-12-14T03:10:07.388Z,78.63
2022-12-14T03:14:18.462Z,78.52
2022-12-14T03:18:24.620Z,78.87
2022-12-14T03:22:35.001Z,78.95
2022-12-14T03:26:47.524Z,78.79
2022-12-14T03:31:00.279Z,78.93
2022-12-14T03:35:08.804Z,79.09
2022-12-14T03:39:18.411Z,78.83
2022-12-14T03:43:28.617Z,78.95
2022-12-14T03:47:50.932Z,79.18
2022-12-14T03:52:04.432Z,79.28
2022-12-14T03:56:14.007Z,79.27
2022-12-14T04:00:22.588Z,79.18
2022-12-14T04:04:31.693Z,79.10
2022-12-14T04:08:42.471Z,79.29
2022-12-14T04:13:06.841Z,79.31
2022-12-14T04:17:31.478Z,79.27
2022-12-14T04:21:40.806Z,79.39
2022-12-14T04:26:05.992Z,79.36
2022-12-14T04:30:13.266Z,79.78
2022-12-14T04:34:19.313Z,79.39
2022-12-14T04:38:28.580Z,79.46
2022-12-14T04:42:37.345Z,79.52
2022-12-14T04:46:43.085Z,79.42
2022-12-14T04:50:50.499Z,79.44
2022-12-14T04:54:59.075Z,79.42
2022-12-14T04:59:02.431Z,79.70
2022-12-14T05:03:19.679Z,79.42
2022-12-14T05:07:35.049Z,79.37
2022-12-14T05:11:53.700Z,79.44
2022-12-14T05:15:59.569Z,79.44
2022-12-14T05:20:04.277Z,79.41
2022-12-14T05:24:07.938Z,79.46
2022-12-14T05:28:11.954Z,79.39
2022-12-14T05:32:15.085Z,79.32
2022-12-14T05:36:19.882Z,79.13
2022-12-14T05:40:23.253Z,78.35
2022-12-14T05:44:26.300Z,77.61
2022-12-14T05:48:29.403Z,77.58
2022-12-14T05:52:33.835Z,77.33
2022-12-14T05:56:37.026Z,77.17
2022-12-14T06:00:40.315Z,77.00
2022-12-14T06:04:43.450Z,76.57
2022-12-14T06:08:48.181Z,76.74
2022-12-14T06:12:51.397Z,76.67
2022-12-14T06:16:54.466Z,76.04
2022-12-14T06:20:58.700Z,76.03
2022-12-14T06:25:03.113Z,75.97
2022-12-14T06:29:06.173Z,75.88
2022-12-14T06:33:09.163Z,75.77
2022-12-14T06:37:12.258Z,75.01
2022-12-14T06:41:16.801Z,75.19
2022-12-14T06:45:19.795Z,74.76
2022-12-14T06:49:23.349Z,74.88
2022-12-14T06:53:26.779Z,74.69
2022-12-14T06:57:31.404Z,74.66
2022-12-14T07:01:34.525Z,74.32
2022-12-14T07:05:38.436Z,74.40
2022-12-14T07:09:41.492Z,74.18
2022-12-14T07:13:46.065Z,74.46
2022-12-14T07:17:52.074Z,74.36
2022-12-14T07:21:55.460Z,74.58
2022-12-14T07:26:02.440Z,74.47
2022-12-14T07:30:09.037Z,74.32
2022-12-14T07:34:14.106Z,74.33
2022-12-14T07:38:17.178Z,74.18
2022-12-14T07:42:20.390Z,74.21
2022-12-14T07:46:26.345Z,74.10
2022-12-14T07:50:29.551Z,74.11
2022-12-14T07:54:32.529Z,74.01
2022-12-14T07:58:36.695Z,73.30
2022-12-14T08:02:41.712Z,73.92
2022-12-14T08:06:46.834Z,73.47
2022-12-14T08:10:50.211Z,73.86
2022-12-14T08:14:53.294Z,73.87
2022-12-14T08:18:59.664Z,73.83
2022-12-14T08:23:02.780Z,73.65
2022-12-14T08:27:05.801Z,73.77
2022-12-14T08:31:10.638Z,73.72
2022-12-14T08:35:15.201Z,73.85
2022-12-14T08:39:18.308Z,73.38
2022-12-14T08:43:25.001Z,73.46
2022-12-14T08:47:28.329Z,73.64
2022-12-14T08:51:32.767Z,73.60
2022-12-14T08:55:38.972Z,73.79
2022-12-14T09:04:08.201Z,73.62
2022-12-14T09:08:12.872Z,73.51
2022-12-14T09:12:16.105Z,74.06
2022-12-14T09:16:21.896Z,73.38
2022-12-14T09:20:25.011Z,73.36
2022-12-14T09:24:29.611Z,73.18
2022-12-14T09:28:34.726Z,73.36
2022-12-14T09:32:37.788Z,73.33
2022-12-14T09:36:40.900Z,73.23
2022-12-14T09:40:51.318Z,73.02
2022-12-14T09:45:01.799Z,73.12
2022-12-14T09:49:06.270Z,72.91
2022-12-14T09:53:15.366Z,72.87
2022-12-14T09:57:29.775Z,72.68
2022-12-14T10:02:13.715Z,72.72
2022-12-14T10:06:34.125Z,73.01
2022-12-14T10:10:49.357Z,72.96
2022-12-14T10:15:11.320Z,72.73
2022-12-14T10:19:28.902Z,72.64
2022-12-14T10:23:32.891Z,72.47
2022-12-14T10:28:01.207Z,72.25
2022-12-14T10:32:13.448Z,72.53
2022-12-14T10:36:21.837Z,72.24
2022-12-14T10:40:34.069Z,72.15
2022-12-14T10:44:51.520Z,72.56
2022-12-14T10:49:07.547Z,72.42
2022-12-14T10:53:17.478Z,72.02
2022-12-14T10:57:21.853Z,71.85
2022-12-14T11:01:25.252Z,72.05
2022-12-14T11:05:37.623Z,71.81
2022-12-14T11:09:41.454Z,71.88
2022-12-14T11:13:52.879Z,71.85
2022-12-14T11:18:02.977Z,71.48
2022-12-14T11:22:20.295Z,71.65
2022-12-14T11:26:29.879Z,71.60
2022-12-14T11:30:33.250Z,71.74
2022-12-14T11:34:39.389Z,71.90
2022-12-14T11:38:43.832Z,71.92
2022-12-14T11:42:50.562Z,71.94
2022-12-14T11:46:56.461Z,71.87
2022-12-14T11:51:11.273Z,71.67
2022-12-14T11:55:24.710Z,71.67
2022-12-14T11:59:38.070Z,71.39
2022-12-14T12:03:47.114Z,71.88
2022-12-14T12:07:55.437Z,71.70
2022-12-14T12:12:00.127Z,71.18
2022-12-14T12:16:07.288Z,71.79
2022-12-14T12:20:23.718Z,71.65
2022-12-14T12:24:32.420Z,71.78
2022-12-14T12:28:44.821Z,72.00
2022-12-14T12:32:53.639Z,71.94
2022-12-14T12:37:25.249Z,72.04
2022-12-14T12:41:30.695Z,71.76
2022-12-14T12:45:39.232Z,71.96
2022-12-14T12:49:42.291Z,71.93
2022-12-14T12:53:49.022Z,71.96
2022-12-14T12:57:54.867Z,71.88
2022-12-14T13:02:04.485Z,73.30
2022-12-14T13:06:16.718Z,74.56
2022-12-14T13:10:24.033Z,72.32
2022-12-14T13:14:33.059Z,72.28
2022-12-14T13:19:08.860Z,72.44
2022-12-14T13:23:44.346Z,72.45
2022-12-14T13:27:51.212Z,72.29
2022-12-14T13:32:03.642Z,72.08
2022-12-14T13:36:35.257Z,72.24
2022-12-14T13:41:02.703Z,72.07
2022-12-14T13:45:16.234Z,72.17
2022-12-14T13:49:23.046Z,72.50
2022-12-14T13:53:30.542Z,72.58
2022-12-14T13:57:33.656Z,72.62
2022-12-14T14:02:05.129Z,72.65
2022-12-14T14:06:10.604Z,72.98
2022-12-14T14:10:32.195Z,73.24
2022-12-14T14:14:48.838Z,73.07
2022-12-14T14:18:58.503Z,73.17
2022-12-14T14:23:29.475Z,73.18
2022-12-14T14:27:38.802Z,73.17
2022-12-14T14:31:48.300Z,73.43
2022-12-14T14:35:51.585Z,73.28
2022-12-14T14:40:18.704Z,73.21
2022-12-14T14:44:38.958Z,73.23
2022-12-14T14:48:44.971Z,73.33
2022-12-14T14:53:13.999Z,73.12
2022-12-14T14:57:35.154Z,72.92
2022-12-14T15:01:45.623Z,73.06
2022-12-14T15:05:49.768Z,73.38
2022-12-14T15:10:00.845Z,73.09
2022-12-14T15:14:08.155Z,73.44
2022-12-14T15:18:22.890Z,73.26
2022-12-14T15:22:28.613Z,73.36
2022-12-14T15:26:35.398Z,73.59
2022-12-14T15:30:39.835Z,73.52
2022-12-14T15:34:53.356Z,73.28
2022-12-14T15:38:58.702Z,73.63
2022-12-14T15:43:03.778Z,73.61
2022-12-14T15:47:07.922Z,73.71
2022-12-14T15:51:17.939Z,73.65
2022-12-14T15:55:30.804Z,73.75
2022-12-14T15:59:36.982Z,73.61
2022-12-14T16:03:43.832Z,73.97
2022-12-14T16:07:52.391Z,73.79
2022-12-14T16:11:57.984Z,73.76
2022-12-14T16:16:08.017Z,73.75
2022-12-14T16:20:19.949Z,73.88
2022-12-14T16:24:26.650Z,74.23
2022-12-14T16:28:32.676Z,74.08
2022-12-14T16:32:36.094Z,74.37
2022-12-14T16:36:39.185Z,74.53
2022-12-14T16:40:53.026Z,74.62
2022-12-14T16:44:56.248Z,74.81
2022-12-14T16:49:20.802Z,74.91
2022-12-14T16:53:26.157Z,75.04
2022-12-14T16:57:30.878Z,74.97
2022-12-14T17:01:42.626Z,74.77
2022-12-14T17:05:54.019Z,74.75
2022-12-14T17:09:57.405Z,74.86
2022-12-14T17:14:01.928Z,75.04
2022-12-14T17:18:08.062Z,75.11
2022-12-14T17:22:17.506Z,75.01
2022-12-14T17:26:23.403Z,75.16
2022-12-14T17:30:28.784Z,75.15
2022-12-14T17:34:32.038Z,75.08
2022-12-14T17:38:35.314Z,75.20
2022-12-14T17:42:40.811Z,75.16
2022-12-14T17:46:48.696Z,75.50
2022-12-14T17:50:52.264Z,75.46
2022-12-14T17:54:55.454Z,75.29
2022-12-14T17:58:58.498Z,75.51
2022-12-14T18:03:03.955Z,75.44
2022-12-14T18:07:07.479Z,75.59
2022-12-14T18:11:14.658Z,75.57
2022-12-14T18:15:20.724Z,75.50
2022-12-14T18:19:25.373Z,75.45
2022-12-14T18:23:29.849Z,75.66
2022-12-14T18:27:33.393Z,75.52
2022-12-14T18:31:38.944Z,75.73
2022-12-14T18:35:44.318Z,75.67
2022-12-14T18:39:49.369Z,75.74
2022-12-14T18:43:54.287Z,75.68
2022-12-14T18:47:57.584Z,75.73
2022-12-14T18:52:02.014Z,75.84
2022-12-14T18:56:09.292Z,75.87
2022-12-14T19:00:15.051Z,75.75
2022-12-14T19:04:18.189Z,75.96
2022-12-14T19:08:22.592Z,76.12
2022-12-14T19:12:25.920Z,76.05
2022-12-14T19:16:29.295Z,76.14
2022-12-14T19:20:32.484Z,76.04
2022-12-14T19:24:37.462Z,76.36
2022-12-14T19:28:40.522Z,76.27
2022-12-14T19:32:44.209Z,76.33
2022-12-14T19:36:50.588Z,76.09
2022-12-14T19:41:03.344Z,76.12
2022-12-14T19:45:08.204Z,76.10
2022-12-14T19:49:14.764Z,76.43
2022-12-14T19:53:23.251Z,76.12
2022-12-14T19:57:29.062Z,75.89
2022-12-14T20:01:38.812Z,75.75
2022-12-14T20:05:51.334Z,76.13
2022-12-14T20:09:54.588Z,76.10
2022-12-14T20:14:03.290Z,76.00
2022-12-14T20:18:07.467Z,75.86
2022-12-14T20:22:10.803Z,75.90
2022-12-14T20:26:17.661Z,75.95
2022-12-14T20:30:22.137Z,76.43
2022-12-14T20:34:25.407Z,76.25
2022-12-14T20:38:29.487Z,76.05
2022-12-14T20:42:32.605Z,76.15
2022-12-14T20:46:39.411Z,76.33
2022-12-14T20:50:44.278Z,76.25
2022-12-14T20:54:54.074Z,76.56
2022-12-14T20:58:57.282Z,76.75
2022-12-14T21:03:01.921Z,76.69
2022-12-14T21:07:05.145Z,76.39
2022-12-14T21:11:22.209Z,76.22
2022-12-14T21:15:25.516Z,76.29
2022-12-14T21:19:30.071Z,76.29
2022-12-14T21:23:33.388Z,76.22
2022-12-14T21:27:39.005Z,76.46
2022-12-14T21:31:44.348Z,76.60
2022-12-14T21:35:48.804Z,76.46
2022-12-14T21:39:55.006Z,76.26
2022-12-14T21:44:00.499Z,76.56
2022-12-14T21:48:03.790Z,76.18
2022-12-14T21:52:08.268Z,76.30
2022-12-14T21:56:34.097Z,76.21
2022-12-14T22:00:39.158Z,76.51
2022-12-14T22:04:46.747Z,76.13
2022-12-14T22:08:51.414Z,76.33
2022-12-14T22:12:54.523Z,75.82
2022-12-14T22:16:57.615Z,75.89
2022-12-14T22:21:04.378Z,75.99
2022-12-14T22:25:09.620Z,75.99
2022-12-14T22:29:12.857Z,75.75
2022-12-14T22:33:16.059Z,75.98
2022-12-14T22:37:19.055Z,76.05
2022-12-14T22:41:23.581Z,75.81
2022-12-14T22:45:27.915Z,75.86
2022-12-14T22:49:30.926Z,75.86
2022-12-14T22:53:34.728Z,76.05
2022-12-14T22:57:41.740Z,76.31
2022-12-14T23:01:50.086Z,76.40
2022-12-14T23:06:00.354Z,76.14
2022-12-14T23:10:23.163Z,76.17
2022-12-14T23:14:44.993Z,76.20
2022-12-14T23:19:05.261Z,76.52
2022-12-14T23:23:26.977Z,76.29
2022-12-14T23:27:47.741Z,76.16
2022-12-14T23:32:09.756Z,76.33
2022-12-14T23:36:30.355Z,75.98
2022-12-14T23:40:50.579Z,75.94
2022-12-14T23:45:10.932Z,75.76
2022-12-14T23:49:33.146Z,75.87
2022-12-14T23:53:53.552Z,75.79
2022-12-14T23:58:15.849Z,76.49
